sensor_id;sensor_type;location;lat;lon;timestamp;temperature;humidity
12166;DHT22;6146;48.128;11.476;2023-04-03T00:00:04;2.90;99.90
12166;DHT22;6146;48.128;11.476;2023-04-03T00:02:30;2.90;99.90
12166;DHT22;6146;48.128;11.476;2023-04-03T00:04:55;2.90;99.90
12166;DHT22;6146;48.128;11.476;2023-04-03T00:07:21;2.90;99.90
12166;DHT22;6146;48.128;11.476;2023-04-03T00:09:46;2.90;99.90
12166;DHT22;6146;48.128;11.476;2023-04-03T00:12:12;3.00;99.90
12166;DHT22;6146;48.128;11.476;2023-04-03T00:14:38;3.00;99.90
12166;DHT22;6146;48.128;11.476;2023-04-03T00:17:03;3.10;99.90
12166;DHT22;6146;48.128;11.476;2023-04-03T00:19:29;3.10;99.90
12166;DHT22;6146;48.128;11.476;2023-04-03T00:21:55;3.10;99.90
12166;DHT22;6146;48.128;11.476;2023-04-03T00:24:20;3.20;99.90
12166;DHT22;6146;48.128;11.476;2023-04-03T00:26:46;3.20;99.90
12166;DHT22;6146;48.128;11.476;2023-04-03T00:29:12;3.20;99.90
12166;DHT22;6146;48.128;11.476;2023-04-03T00:31:37;3.20;99.90
12166;DHT22;6146;48.128;11.476;2023-04-03T00:34:03;3.20;99.90
12166;DHT22;6146;48.128;11.476;2023-04-03T00:36:28;3.20;99.90
12166;DHT22;6146;48.128;11.476;2023-04-03T00:38:54;3.20;99.90
12166;DHT22;6146;48.128;11.476;2023-04-03T00:41:19;3.20;99.90
12166;DHT22;6146;48.128;11.476;2023-04-03T00:43:45;3.20;99.90
12166;DHT22;6146;48.128;11.476;2023-04-03T00:46:11;3.10;99.90
12166;DHT22;6146;48.128;11.476;2023-04-03T00:48:42;3.10;99.90
12166;DHT22;6146;48.128;11.476;2023-04-03T00:51:16;3.10;99.90
12166;DHT22;6146;48.128;11.476;2023-04-03T00:53:53;3.00;99.90
12166;DHT22;6146;48.128;11.476;2023-04-03T00:56:23;3.00;99.90
12166;DHT22;6146;48.128;11.476;2023-04-03T00:59:04;3.00;99.90
12166;DHT22;6146;48.128;11.476;2023-04-03T01:01:31;3.00;99.90
12166;DHT22;6146;48.128;11.476;2023-04-03T01:03:59;3.10;99.90
12166;DHT22;6146;48.128;11.476;2023-04-03T01:06:28;3.10;99.90
12166;DHT22;6146;48.128;11.476;2023-04-03T01:08:56;3.00;99.90
12166;DHT22;6146;48.128;11.476;2023-04-03T01:11:22;3.00;99.90
12166;DHT22;6146;48.128;11.476;2023-04-03T01:13:48;3.00;99.90
12166;DHT22;6146;48.128;11.476;2023-04-03T01:16:14;3.00;99.90
12166;DHT22;6146;48.128;11.476;2023-04-03T01:18:40;3.00;99.90
12166;DHT22;6146;48.128;11.476;2023-04-03T01:21:13;3.00;99.90
12166;DHT22;6146;48.128;11.476;2023-04-03T01:26:13;3.20;99.90
12166;DHT22;6146;48.128;11.476;2023-04-03T01:28:39;2.90;99.90
12166;DHT22;6146;48.128;11.476;2023-04-03T01:33:49;2.90;99.90
12166;DHT22;6146;48.128;11.476;2023-04-03T01:36:22;2.80;99.90
12166;DHT22;6146;48.128;11.476;2023-04-03T01:38:49;2.80;99.90
12166;DHT22;6146;48.128;11.476;2023-04-03T01:41:16;2.70;99.90
12166;DHT22;6146;48.128;11.476;2023-04-03T01:43:42;2.70;99.90
12166;DHT22;6146;48.128;11.476;2023-04-03T01:46:07;2.70;99.90
12166;DHT22;6146;48.128;11.476;2023-04-03T01:48:33;2.70;99.90
12166;DHT22;6146;48.128;11.476;2023-04-03T01:50:59;2.70;99.90
12166;DHT22;6146;48.128;11.476;2023-04-03T01:53:24;2.70;99.90
12166;DHT22;6146;48.128;11.476;2023-04-03T01:55:50;2.70;99.90
12166;DHT22;6146;48.128;11.476;2023-04-03T01:58:15;2.60;99.90
12166;DHT22;6146;48.128;11.476;2023-04-03T02:00:41;2.50;99.90
12166;DHT22;6146;48.128;11.476;2023-04-03T02:03:06;2.60;99.90
12166;DHT22;6146;48.128;11.476;2023-04-03T02:05:32;2.60;99.90
12166;DHT22;6146;48.128;11.476;2023-04-03T02:07:58;2.50;99.90
12166;DHT22;6146;48.128;11.476;2023-04-03T02:10:23;2.50;99.90
12166;DHT22;6146;48.128;11.476;2023-04-03T02:12:49;2.50;99.90
12166;DHT22;6146;48.128;11.476;2023-04-03T02:15:16;2.50;99.90
12166;DHT22;6146;48.128;11.476;2023-04-03T02:17:41;2.50;99.90
12166;DHT22;6146;48.128;11.476;2023-04-03T02:20:07;2.60;99.90
12166;DHT22;6146;48.128;11.476;2023-04-03T02:22:33;2.60;99.90
12166;DHT22;6146;48.128;11.476;2023-04-03T02:24:59;2.60;99.90
12166;DHT22;6146;48.128;11.476;2023-04-03T02:27:24;2.70;99.90
12166;DHT22;6146;48.128;11.476;2023-04-03T02:29:50;2.80;99.90
12166;DHT22;6146;48.128;11.476;2023-04-03T02:32:15;2.70;99.90
12166;DHT22;6146;48.128;11.476;2023-04-03T02:34:41;2.70;99.90
12166;DHT22;6146;48.128;11.476;2023-04-03T02:37:06;2.70;99.90
12166;DHT22;6146;48.128;11.476;2023-04-03T02:39:32;2.80;99.90
12166;DHT22;6146;48.128;11.476;2023-04-03T02:41:57;2.80;99.90
12166;DHT22;6146;48.128;11.476;2023-04-03T02:44:23;2.80;99.90
12166;DHT22;6146;48.128;11.476;2023-04-03T02:46:49;2.80;99.90
12166;DHT22;6146;48.128;11.476;2023-04-03T02:49:14;2.90;99.90
12166;DHT22;6146;48.128;11.476;2023-04-03T02:51:41;2.90;99.90
12166;DHT22;6146;48.128;11.476;2023-04-03T02:54:07;2.90;99.90
12166;DHT22;6146;48.128;11.476;2023-04-03T02:56:32;2.90;99.90
12166;DHT22;6146;48.128;11.476;2023-04-03T02:58:58;2.90;99.90
12166;DHT22;6146;48.128;11.476;2023-04-03T03:01:24;2.90;99.90
12166;DHT22;6146;48.128;11.476;2023-04-03T03:03:49;2.90;99.90
12166;DHT22;6146;48.128;11.476;2023-04-03T03:06:16;2.90;99.90
12166;DHT22;6146;48.128;11.476;2023-04-03T03:08:42;3.00;99.90
12166;DHT22;6146;48.128;11.476;2023-04-03T03:11:09;3.00;99.90
12166;DHT22;6146;48.128;11.476;2023-04-03T03:13:34;2.90;99.90
12166;DHT22;6146;48.128;11.476;2023-04-03T03:16:00;3.00;99.90
12166;DHT22;6146;48.128;11.476;2023-04-03T03:18:26;3.00;99.90
12166;DHT22;6146;48.128;11.476;2023-04-03T03:20:53;3.00;99.90
12166;DHT22;6146;48.128;11.476;2023-04-03T03:23:19;2.90;99.90
12166;DHT22;6146;48.128;11.476;2023-04-03T03:25:44;2.90;99.90
12166;DHT22;6146;48.128;11.476;2023-04-03T03:28:10;2.90;99.90
12166;DHT22;6146;48.128;11.476;2023-04-03T03:30:36;2.90;99.90
12166;DHT22;6146;48.128;11.476;2023-04-03T03:33:02;2.90;99.90
12166;DHT22;6146;48.128;11.476;2023-04-03T03:35:28;2.90;99.90
12166;DHT22;6146;48.128;11.476;2023-04-03T03:37:53;2.90;99.90
12166;DHT22;6146;48.128;11.476;2023-04-03T03:40:19;2.80;99.90
12166;DHT22;6146;48.128;11.476;2023-04-03T03:42:44;2.80;99.90
12166;DHT22;6146;48.128;11.476;2023-04-03T03:45:10;2.80;99.90
12166;DHT22;6146;48.128;11.476;2023-04-03T03:47:36;2.90;99.90
12166;DHT22;6146;48.128;11.476;2023-04-03T03:50:02;2.90;99.90
12166;DHT22;6146;48.128;11.476;2023-04-03T03:52:28;2.90;99.90
12166;DHT22;6146;48.128;11.476;2023-04-03T03:54:55;3.00;99.90
12166;DHT22;6146;48.128;11.476;2023-04-03T03:57:20;3.00;99.90
12166;DHT22;6146;48.128;11.476;2023-04-03T03:59:46;3.10;99.90
12166;DHT22;6146;48.128;11.476;2023-04-03T04:02:12;3.10;99.90
12166;DHT22;6146;48.128;11.476;2023-04-03T04:04:38;3.10;99.90
12166;DHT22;6146;48.128;11.476;2023-04-03T04:07:04;3.10;99.90
12166;DHT22;6146;48.128;11.476;2023-04-03T04:09:29;3.10;99.90
12166;DHT22;6146;48.128;11.476;2023-04-03T04:11:55;3.10;99.90
12166;DHT22;6146;48.128;11.476;2023-04-03T04:14:21;3.10;99.90
12166;DHT22;6146;48.128;11.476;2023-04-03T04:16:47;3.00;99.90
12166;DHT22;6146;48.128;11.476;2023-04-03T04:19:13;3.00;99.90
12166;DHT22;6146;48.128;11.476;2023-04-03T04:21:38;3.00;99.90
12166;DHT22;6146;48.128;11.476;2023-04-03T04:24:05;3.00;99.90
12166;DHT22;6146;48.128;11.476;2023-04-03T04:26:31;3.00;99.90
12166;DHT22;6146;48.128;11.476;2023-04-03T04:28:57;3.00;99.90
12166;DHT22;6146;48.128;11.476;2023-04-03T04:31:22;3.00;99.90
12166;DHT22;6146;48.128;11.476;2023-04-03T04:33:48;3.00;99.90
12166;DHT22;6146;48.128;11.476;2023-04-03T04:36:13;3.00;99.90
12166;DHT22;6146;48.128;11.476;2023-04-03T04:38:40;3.00;99.90
12166;DHT22;6146;48.128;11.476;2023-04-03T04:41:06;3.00;99.90
12166;DHT22;6146;48.128;11.476;2023-04-03T04:43:32;3.00;99.90
12166;DHT22;6146;48.128;11.476;2023-04-03T04:46:08;3.00;99.90
12166;DHT22;6146;48.128;11.476;2023-04-03T04:48:35;3.00;99.90
12166;DHT22;6146;48.128;11.476;2023-04-03T04:51:01;3.00;99.90
12166;DHT22;6146;48.128;11.476;2023-04-03T04:53:28;3.10;99.90
12166;DHT22;6146;48.128;11.476;2023-04-03T04:55:53;3.10;99.90
12166;DHT22;6146;48.128;11.476;2023-04-03T04:58:19;3.00;99.90
12166;DHT22;6146;48.128;11.476;2023-04-03T05:00:45;3.00;99.90
12166;DHT22;6146;48.128;11.476;2023-04-03T05:03:11;3.00;99.90
12166;DHT22;6146;48.128;11.476;2023-04-03T05:05:37;3.00;99.90
12166;DHT22;6146;48.128;11.476;2023-04-03T05:08:03;3.00;99.90
12166;DHT22;6146;48.128;11.476;2023-04-03T05:10:29;3.00;99.90
12166;DHT22;6146;48.128;11.476;2023-04-03T05:12:55;3.00;99.90
12166;DHT22;6146;48.128;11.476;2023-04-03T05:15:20;3.00;99.90
12166;DHT22;6146;48.128;11.476;2023-04-03T05:17:46;3.10;99.90
12166;DHT22;6146;48.128;11.476;2023-04-03T05:20:12;3.10;99.90
12166;DHT22;6146;48.128;11.476;2023-04-03T05:22:37;3.10;99.90
12166;DHT22;6146;48.128;11.476;2023-04-03T05:25:04;3.10;99.90
12166;DHT22;6146;48.128;11.476;2023-04-03T05:27:30;3.10;99.90
12166;DHT22;6146;48.128;11.476;2023-04-03T05:29:55;3.10;99.90
12166;DHT22;6146;48.128;11.476;2023-04-03T05:32:22;3.10;99.90
12166;DHT22;6146;48.128;11.476;2023-04-03T05:34:48;3.10;99.90
12166;DHT22;6146;48.128;11.476;2023-04-03T05:37:13;3.20;99.90
12166;DHT22;6146;48.128;11.476;2023-04-03T05:39:39;3.10;99.90
12166;DHT22;6146;48.128;11.476;2023-04-03T05:42:06;3.10;99.90
12166;DHT22;6146;48.128;11.476;2023-04-03T05:44:33;3.10;99.90
12166;DHT22;6146;48.128;11.476;2023-04-03T05:46:58;3.10;99.90
12166;DHT22;6146;48.128;11.476;2023-04-03T05:49:24;3.10;99.90
12166;DHT22;6146;48.128;11.476;2023-04-03T05:51:50;3.10;99.90
12166;DHT22;6146;48.128;11.476;2023-04-03T05:54:23;3.20;99.90
12166;DHT22;6146;48.128;11.476;2023-04-03T05:56:50;3.20;99.90
12166;DHT22;6146;48.128;11.476;2023-04-03T05:59:19;3.10;99.90
12166;DHT22;6146;48.128;11.476;2023-04-03T06:01:45;3.20;99.90
12166;DHT22;6146;48.128;11.476;2023-04-03T06:04:11;3.20;99.90
12166;DHT22;6146;48.128;11.476;2023-04-03T06:06:54;3.30;99.90
12166;DHT22;6146;48.128;11.476;2023-04-03T06:09:24;3.30;99.90
12166;DHT22;6146;48.128;11.476;2023-04-03T06:11:51;3.40;99.90
12166;DHT22;6146;48.128;11.476;2023-04-03T06:14:17;3.40;99.90
12166;DHT22;6146;48.128;11.476;2023-04-03T06:16:43;3.50;99.90
12166;DHT22;6146;48.128;11.476;2023-04-03T06:19:09;3.60;99.90
12166;DHT22;6146;48.128;11.476;2023-04-03T06:21:35;3.60;99.90
12166;DHT22;6146;48.128;11.476;2023-04-03T06:24:01;3.60;99.90
12166;DHT22;6146;48.128;11.476;2023-04-03T06:26:27;3.50;99.90
12166;DHT22;6146;48.128;11.476;2023-04-03T06:28:53;3.50;99.90
12166;DHT22;6146;48.128;11.476;2023-04-03T06:31:19;3.50;99.90
12166;DHT22;6146;48.128;11.476;2023-04-03T06:33:45;3.60;99.90
12166;DHT22;6146;48.128;11.476;2023-04-03T06:36:11;3.70;99.90
12166;DHT22;6146;48.128;11.476;2023-04-03T06:38:37;3.80;99.90
12166;DHT22;6146;48.128;11.476;2023-04-03T06:41:03;4.00;99.90
12166;DHT22;6146;48.128;11.476;2023-04-03T06:43:29;4.00;99.90
12166;DHT22;6146;48.128;11.476;2023-04-03T06:45:56;4.00;99.90
12166;DHT22;6146;48.128;11.476;2023-04-03T06:48:22;4.10;99.90
12166;DHT22;6146;48.128;11.476;2023-04-03T06:50:48;4.00;99.90
12166;DHT22;6146;48.128;11.476;2023-04-03T06:53:14;4.00;99.90
12166;DHT22;6146;48.128;11.476;2023-04-03T06:55:40;4.00;99.90
12166;DHT22;6146;48.128;11.476;2023-04-03T06:58:06;4.20;99.90
12166;DHT22;6146;48.128;11.476;2023-04-03T07:00:32;4.20;99.90
12166;DHT22;6146;48.128;11.476;2023-04-03T07:02:58;4.40;99.90
12166;DHT22;6146;48.128;11.476;2023-04-03T07:05:24;4.40;99.90
12166;DHT22;6146;48.128;11.476;2023-04-03T07:07:50;4.50;99.90
12166;DHT22;6146;48.128;11.476;2023-04-03T07:10:17;4.50;99.90
12166;DHT22;6146;48.128;11.476;2023-04-03T07:12:42;4.20;99.90
12166;DHT22;6146;48.128;11.476;2023-04-03T07:15:09;4.10;99.90
12166;DHT22;6146;48.128;11.476;2023-04-03T07:17:34;3.90;99.90
12166;DHT22;6146;48.128;11.476;2023-04-03T07:20:01;3.80;99.90
12166;DHT22;6146;48.128;11.476;2023-04-03T07:22:27;3.90;99.90
12166;DHT22;6146;48.128;11.476;2023-04-03T07:24:52;4.20;99.90
12166;DHT22;6146;48.128;11.476;2023-04-03T07:27:18;4.30;99.90
12166;DHT22;6146;48.128;11.476;2023-04-03T07:29:44;4.40;99.90
12166;DHT22;6146;48.128;11.476;2023-04-03T07:32:10;4.40;99.90
12166;DHT22;6146;48.128;11.476;2023-04-03T07:34:36;4.30;99.90
12166;DHT22;6146;48.128;11.476;2023-04-03T07:37:02;4.70;99.90
12166;DHT22;6146;48.128;11.476;2023-04-03T07:39:28;4.90;99.90
12166;DHT22;6146;48.128;11.476;2023-04-03T07:41:54;4.90;99.90
12166;DHT22;6146;48.128;11.476;2023-04-03T07:44:23;4.60;99.90
12166;DHT22;6146;48.128;11.476;2023-04-03T07:46:49;4.50;99.90
12166;DHT22;6146;48.128;11.476;2023-04-03T07:49:16;4.80;99.90
12166;DHT22;6146;48.128;11.476;2023-04-03T07:51:43;4.30;99.90
12166;DHT22;6146;48.128;11.476;2023-04-03T07:54:09;4.20;99.90
12166;DHT22;6146;48.128;11.476;2023-04-03T07:56:34;4.30;99.90
12166;DHT22;6146;48.128;11.476;2023-04-03T07:59:00;4.30;99.90
12166;DHT22;6146;48.128;11.476;2023-04-03T08:01:26;4.30;99.90
12166;DHT22;6146;48.128;11.476;2023-04-03T08:03:51;4.20;99.90
12166;DHT22;6146;48.128;11.476;2023-04-03T08:06:17;4.00;99.90
12166;DHT22;6146;48.128;11.476;2023-04-03T08:08:43;4.00;99.90
12166;DHT22;6146;48.128;11.476;2023-04-03T08:11:09;4.00;99.90
12166;DHT22;6146;48.128;11.476;2023-04-03T08:13:36;4.00;99.90
12166;DHT22;6146;48.128;11.476;2023-04-03T08:16:10;3.90;99.90
12166;DHT22;6146;48.128;11.476;2023-04-03T08:18:35;4.00;99.90
12166;DHT22;6146;48.128;11.476;2023-04-03T08:21:05;4.00;99.90
12166;DHT22;6146;48.128;11.476;2023-04-03T08:23:31;3.80;99.90
12166;DHT22;6146;48.128;11.476;2023-04-03T08:25:56;3.80;99.90
12166;DHT22;6146;48.128;11.476;2023-04-03T08:28:22;3.70;99.90
12166;DHT22;6146;48.128;11.476;2023-04-03T08:30:47;3.70;99.90
12166;DHT22;6146;48.128;11.476;2023-04-03T08:33:13;3.70;99.90
12166;DHT22;6146;48.128;11.476;2023-04-03T08:35:41;3.80;99.90
12166;DHT22;6146;48.128;11.476;2023-04-03T08:38:08;3.90;99.90
12166;DHT22;6146;48.128;11.476;2023-04-03T08:40:34;3.90;99.90
12166;DHT22;6146;48.128;11.476;2023-04-03T08:46:01;4.10;99.90
12166;DHT22;6146;48.128;11.476;2023-04-03T08:48:33;4.30;99.90
12166;DHT22;6146;48.128;11.476;2023-04-03T08:51:09;4.30;99.90
12166;DHT22;6146;48.128;11.476;2023-04-03T08:53:40;4.40;99.90
12166;DHT22;6146;48.128;11.476;2023-04-03T08:56:09;4.30;99.90
12166;DHT22;6146;48.128;11.476;2023-04-03T08:58:45;4.30;99.90
12166;DHT22;6146;48.128;11.476;2023-04-03T09:03:53;4.60;99.90
12166;DHT22;6146;48.128;11.476;2023-04-03T09:06:25;4.70;99.90
12166;DHT22;6146;48.128;11.476;2023-04-03T09:09:22;5.10;99.90
12166;DHT22;6146;48.128;11.476;2023-04-03T09:17:35;5.40;99.90
12166;DHT22;6146;48.128;11.476;2023-04-03T09:23:48;5.20;99.90
12166;DHT22;6146;48.128;11.476;2023-04-03T09:26:01;4.80;99.90
12166;DHT22;6146;48.128;11.476;2023-04-03T09:28:33;4.90;99.90
12166;DHT22;6146;48.128;11.476;2023-04-03T09:31:02;5.00;99.90
12166;DHT22;6146;48.128;11.476;2023-04-03T09:33:29;5.20;99.90
12166;DHT22;6146;48.128;11.476;2023-04-03T09:35:55;5.40;99.90
12166;DHT22;6146;48.128;11.476;2023-04-03T09:38:22;5.60;99.90
12166;DHT22;6146;48.128;11.476;2023-04-03T09:41:12;5.50;99.90
12166;DHT22;6146;48.128;11.476;2023-04-03T09:43:39;5.70;99.90
12166;DHT22;6146;48.128;11.476;2023-04-03T09:49:10;6.30;99.90
12166;DHT22;6146;48.128;11.476;2023-04-03T09:51:36;6.00;99.90
12166;DHT22;6146;48.128;11.476;2023-04-03T09:54:32;5.70;99.90
12166;DHT22;6146;48.128;11.476;2023-04-03T09:57:04;5.80;99.90
12166;DHT22;6146;48.128;11.476;2023-04-03T09:59:31;5.50;99.90
12166;DHT22;6146;48.128;11.476;2023-04-03T10:02:28;5.50;99.90
12166;DHT22;6146;48.128;11.476;2023-04-03T10:04:49;5.40;99.90
12166;DHT22;6146;48.128;11.476;2023-04-03T10:10:01;5.00;99.90
12166;DHT22;6146;48.128;11.476;2023-04-03T10:12:28;4.90;99.90
12166;DHT22;6146;48.128;11.476;2023-04-03T10:15:01;4.90;99.90
12166;DHT22;6146;48.128;11.476;2023-04-03T10:23:01;4.60;99.90
12166;DHT22;6146;48.128;11.476;2023-04-03T10:33:47;4.50;99.90
12166;DHT22;6146;48.128;11.476;2023-04-03T10:41:24;4.70;99.90
12166;DHT22;6146;48.128;11.476;2023-04-03T10:44:05;4.50;99.90
12166;DHT22;6146;48.128;11.476;2023-04-03T10:46:43;4.60;99.90
12166;DHT22;6146;48.128;11.476;2023-04-03T10:49:21;4.50;99.90
12166;DHT22;6146;48.128;11.476;2023-04-03T10:54:41;4.60;99.90
12166;DHT22;6146;48.128;11.476;2023-04-03T10:57:11;4.50;99.90
12166;DHT22;6146;48.128;11.476;2023-04-03T10:59:59;4.40;99.90
12166;DHT22;6146;48.128;11.476;2023-04-03T11:02:33;4.50;99.90
12166;DHT22;6146;48.128;11.476;2023-04-03T11:05:28;4.40;99.90
12166;DHT22;6146;48.128;11.476;2023-04-03T11:07:52;4.20;99.90
12166;DHT22;6146;48.128;11.476;2023-04-03T11:10:24;3.90;99.90
12166;DHT22;6146;48.128;11.476;2023-04-03T11:13:11;3.80;99.90
12166;DHT22;6146;48.128;11.476;2023-04-03T11:15:38;3.80;99.90
12166;DHT22;6146;48.128;11.476;2023-04-03T11:18:11;3.80;99.90
12166;DHT22;6146;48.128;11.476;2023-04-03T11:20:38;3.80;99.90
12166;DHT22;6146;48.128;11.476;2023-04-03T11:23:26;3.90;99.90
12166;DHT22;6146;48.128;11.476;2023-04-03T11:25:58;3.80;99.90
12166;DHT22;6146;48.128;11.476;2023-04-03T11:28:25;3.80;99.90
12166;DHT22;6146;48.128;11.476;2023-04-03T11:36:31;4.10;99.90
12166;DHT22;6146;48.128;11.476;2023-04-03T11:39:02;4.30;99.90
12166;DHT22;6146;48.128;11.476;2023-04-03T11:41:32;4.30;99.90
12166;DHT22;6146;48.128;11.476;2023-04-03T11:44:34;4.40;99.90
12166;DHT22;6146;48.128;11.476;2023-04-03T11:47:02;4.40;99.90
12166;DHT22;6146;48.128;11.476;2023-04-03T12:00:47;5.20;99.90
12166;DHT22;6146;48.128;11.476;2023-04-03T12:08:47;6.10;99.90
12166;DHT22;6146;48.128;11.476;2023-04-03T12:11:28;6.10;99.90
12166;DHT22;6146;48.128;11.476;2023-04-03T12:29:52;5.70;99.90
12166;DHT22;6146;48.128;11.476;2023-04-03T12:35:27;6.40;99.90
12166;DHT22;6146;48.128;11.476;2023-04-03T12:46:23;6.40;99.90
12166;DHT22;6146;48.128;11.476;2023-04-03T12:48:51;6.50;99.90
12166;DHT22;6146;48.128;11.476;2023-04-03T12:53:53;6.80;99.90
12166;DHT22;6146;48.128;11.476;2023-04-03T12:56:25;6.70;99.90
12166;DHT22;6146;48.128;11.476;2023-04-03T12:58:56;6.50;99.90
12166;DHT22;6146;48.128;11.476;2023-04-03T13:01:37;6.30;99.70
12166;DHT22;6146;48.128;11.476;2023-04-03T13:04:03;6.50;99.80
12166;DHT22;6146;48.128;11.476;2023-04-03T13:06:43;6.60;99.90
12166;DHT22;6146;48.128;11.476;2023-04-03T13:09:38;7.20;99.90
12166;DHT22;6146;48.128;11.476;2023-04-03T13:12:12;7.40;99.90
12166;DHT22;6146;48.128;11.476;2023-04-03T13:14:38;7.40;99.80
12166;DHT22;6146;48.128;11.476;2023-04-03T13:17:10;7.10;98.70
12166;DHT22;6146;48.128;11.476;2023-04-03T13:19:38;7.30;97.50
12166;DHT22;6146;48.128;11.476;2023-04-03T13:24:51;6.80;97.10
12166;DHT22;6146;48.128;11.476;2023-04-03T13:27:17;7.00;97.70
12166;DHT22;6146;48.128;11.476;2023-04-03T13:29:48;7.50;98.20
12166;DHT22;6146;48.128;11.476;2023-04-03T13:32:19;8.10;98.70
12166;DHT22;6146;48.128;11.476;2023-04-03T13:34:46;8.10;96.20
12166;DHT22;6146;48.128;11.476;2023-04-03T13:37:28;8.00;95.80
12166;DHT22;6146;48.128;11.476;2023-04-03T13:42:34;7.60;95.70
12166;DHT22;6146;48.128;11.476;2023-04-03T13:47:40;6.80;96.90
12166;DHT22;6146;48.128;11.476;2023-04-03T13:52:48;6.60;98.40
12166;DHT22;6146;48.128;11.476;2023-04-03T14:00:51;6.30;99.90
12166;DHT22;6146;48.128;11.476;2023-04-03T14:03:25;5.90;99.90
12166;DHT22;6146;48.128;11.476;2023-04-03T14:05:52;5.80;99.70
12166;DHT22;6146;48.128;11.476;2023-04-03T14:08:18;5.70;99.90
12166;DHT22;6146;48.128;11.476;2023-04-03T14:10:44;5.60;99.90
12166;DHT22;6146;48.128;11.476;2023-04-03T14:13:14;5.60;99.90
12166;DHT22;6146;48.128;11.476;2023-04-03T14:15:40;5.70;99.90
12166;DHT22;6146;48.128;11.476;2023-04-03T14:18:06;5.90;99.90
12166;DHT22;6146;48.128;11.476;2023-04-03T14:20:32;6.10;99.90
12166;DHT22;6146;48.128;11.476;2023-04-03T14:22:58;6.30;99.50
12166;DHT22;6146;48.128;11.476;2023-04-03T14:25:23;6.40;99.10
12166;DHT22;6146;48.128;11.476;2023-04-03T14:27:52;6.60;98.60
12166;DHT22;6146;48.128;11.476;2023-04-03T14:30:27;6.80;98.60
12166;DHT22;6146;48.128;11.476;2023-04-03T14:32:54;6.80;97.80
12166;DHT22;6146;48.128;11.476;2023-04-03T14:35:20;6.80;97.90
12166;DHT22;6146;48.128;11.476;2023-04-03T14:37:47;6.80;98.00
12166;DHT22;6146;48.128;11.476;2023-04-03T14:40:17;6.90;97.30
12166;DHT22;6146;48.128;11.476;2023-04-03T14:42:43;7.00;96.30
12166;DHT22;6146;48.128;11.476;2023-04-03T14:45:11;7.20;96.60
12166;DHT22;6146;48.128;11.476;2023-04-03T14:47:47;6.90;95.60
12166;DHT22;6146;48.128;11.476;2023-04-03T14:50:20;7.00;94.80
12166;DHT22;6146;48.128;11.476;2023-04-03T14:52:50;7.00;95.50
12166;DHT22;6146;48.128;11.476;2023-04-03T14:55:18;7.20;94.40
12166;DHT22;6146;48.128;11.476;2023-04-03T14:57:44;7.50;94.40
12166;DHT22;6146;48.128;11.476;2023-04-03T15:00:15;7.70;94.30
12166;DHT22;6146;48.128;11.476;2023-04-03T15:02:41;7.70;93.00
12166;DHT22;6146;48.128;11.476;2023-04-03T15:05:09;8.10;93.10
12166;DHT22;6146;48.128;11.476;2023-04-03T15:07:40;8.40;91.90
12166;DHT22;6146;48.128;11.476;2023-04-03T15:10:22;8.30;90.60
12166;DHT22;6146;48.128;11.476;2023-04-03T15:12:49;7.80;91.20
12166;DHT22;6146;48.128;11.476;2023-04-03T15:15:17;7.40;91.80
12166;DHT22;6146;48.128;11.476;2023-04-03T15:17:43;7.10;92.20
12166;DHT22;6146;48.128;11.476;2023-04-03T15:20:15;7.00;92.40
12166;DHT22;6146;48.128;11.476;2023-04-03T15:22:42;6.90;91.20
12166;DHT22;6146;48.128;11.476;2023-04-03T15:25:08;6.70;91.70
12166;DHT22;6146;48.128;11.476;2023-04-03T15:27:35;6.70;92.30
12166;DHT22;6146;48.128;11.476;2023-04-03T15:30:01;6.60;91.80
12166;DHT22;6146;48.128;11.476;2023-04-03T15:32:27;6.60;92.00
12166;DHT22;6146;48.128;11.476;2023-04-03T15:34:54;6.90;91.70
12166;DHT22;6146;48.128;11.476;2023-04-03T15:37:19;7.00;91.00
12166;DHT22;6146;48.128;11.476;2023-04-03T15:39:46;6.90;90.00
12166;DHT22;6146;48.128;11.476;2023-04-03T15:42:11;6.60;90.80
12166;DHT22;6146;48.128;11.476;2023-04-03T15:44:38;6.70;91.50
12166;DHT22;6146;48.128;11.476;2023-04-03T15:47:04;6.60;88.50
12166;DHT22;6146;48.128;11.476;2023-04-03T15:49:32;6.40;89.50
12166;DHT22;6146;48.128;11.476;2023-04-03T15:51:58;6.50;90.00
12166;DHT22;6146;48.128;11.476;2023-04-03T15:54:23;6.20;86.50
12166;DHT22;6146;48.128;11.476;2023-04-03T15:56:50;6.00;86.30
12166;DHT22;6146;48.128;11.476;2023-04-03T15:59:15;5.80;87.20
12166;DHT22;6146;48.128;11.476;2023-04-03T16:01:41;5.80;87.70
12166;DHT22;6146;48.128;11.476;2023-04-03T16:04:08;5.80;88.00
12166;DHT22;6146;48.128;11.476;2023-04-03T16:06:34;5.70;87.60
12166;DHT22;6146;48.128;11.476;2023-04-03T16:09:00;5.70;87.00
12166;DHT22;6146;48.128;11.476;2023-04-03T16:11:26;5.60;88.10
12166;DHT22;6146;48.128;11.476;2023-04-03T16:13:53;5.90;88.80
12166;DHT22;6146;48.128;11.476;2023-04-03T16:16:19;6.10;87.70
12166;DHT22;6146;48.128;11.476;2023-04-03T16:18:44;6.20;87.10
12166;DHT22;6146;48.128;11.476;2023-04-03T16:21:12;6.20;87.60
12166;DHT22;6146;48.128;11.476;2023-04-03T16:23:39;5.90;88.50
12166;DHT22;6146;48.128;11.476;2023-04-03T16:26:05;5.80;89.40
12166;DHT22;6146;48.128;11.476;2023-04-03T16:28:30;5.60;89.20
12166;DHT22;6146;48.128;11.476;2023-04-03T16:30:56;5.60;90.50
12166;DHT22;6146;48.128;11.476;2023-04-03T16:33:22;5.50;90.30
12166;DHT22;6146;48.128;11.476;2023-04-03T16:35:48;5.30;91.30
12166;DHT22;6146;48.128;11.476;2023-04-03T16:38:15;5.30;91.70
12166;DHT22;6146;48.128;11.476;2023-04-03T16:40:41;5.40;90.30
12166;DHT22;6146;48.128;11.476;2023-04-03T16:43:06;5.10;90.40
12166;DHT22;6146;48.128;11.476;2023-04-03T16:45:32;5.00;90.60
12166;DHT22;6146;48.128;11.476;2023-04-03T16:47:58;5.00;90.90
12166;DHT22;6146;48.128;11.476;2023-04-03T16:50:23;4.90;90.50
12166;DHT22;6146;48.128;11.476;2023-04-03T16:52:49;4.90;90.10
12166;DHT22;6146;48.128;11.476;2023-04-03T16:55:14;4.90;90.40
12166;DHT22;6146;48.128;11.476;2023-04-03T16:57:40;4.80;91.00
12166;DHT22;6146;48.128;11.476;2023-04-03T17:00:07;4.80;90.00
12166;DHT22;6146;48.128;11.476;2023-04-03T17:02:33;4.70;89.80
12166;DHT22;6146;48.128;11.476;2023-04-03T17:04:59;4.70;89.10
12166;DHT22;6146;48.128;11.476;2023-04-03T17:07:25;4.60;90.00
12166;DHT22;6146;48.128;11.476;2023-04-03T17:09:52;4.60;89.20
12166;DHT22;6146;48.128;11.476;2023-04-03T17:12:19;4.50;89.50
12166;DHT22;6146;48.128;11.476;2023-04-03T17:14:45;4.60;90.00
12166;DHT22;6146;48.128;11.476;2023-04-03T17:17:13;4.60;90.80
12166;DHT22;6146;48.128;11.476;2023-04-03T17:19:39;4.70;91.30
12166;DHT22;6146;48.128;11.476;2023-04-03T17:22:07;4.70;91.50
12166;DHT22;6146;48.128;11.476;2023-04-03T17:24:34;4.70;92.00
12166;DHT22;6146;48.128;11.476;2023-04-03T17:26:59;4.60;92.20
12166;DHT22;6146;48.128;11.476;2023-04-03T17:29:25;4.60;92.40
12166;DHT22;6146;48.128;11.476;2023-04-03T17:31:51;4.60;92.70
12166;DHT22;6146;48.128;11.476;2023-04-03T17:34:16;4.60;92.10
12166;DHT22;6146;48.128;11.476;2023-04-03T17:36:42;4.40;91.90
12166;DHT22;6146;48.128;11.476;2023-04-03T17:39:08;4.30;92.50
12166;DHT22;6146;48.128;11.476;2023-04-03T17:41:34;4.30;93.00
12166;DHT22;6146;48.128;11.476;2023-04-03T17:43:59;4.30;93.70